createdAt,value
2019-02-02T00:02:03.077Z,37.33
2019-02-02T00:04:45.531Z,47.20
2019-02-02T00:07:27.574Z,43.50
2019-02-02T00:10:09.635Z,42.98
2019-02-02T00:12:52.166Z,45.43
2019-02-02T00:15:34.694Z,43.87
2019-02-02T00:18:17.560Z,44.23
2019-02-02T00:21:00.067Z,48.65
2019-02-02T00:23:42.715Z,50.45
2019-02-02T00:26:24.469Z,47.98
2019-02-02T00:29:06.641Z,48.33
2019-02-02T00:31:49.086Z,49.03
2019-02-02T00:34:31.882Z,48.52
2019-02-02T00:37:14.438Z,50.03
2019-02-02T00:39:56.701Z,51.33
2019-02-02T00:42:39.479Z,46.02
2019-02-02T00:45:20.020Z,50.92
2019-02-02T00:51:11.173Z,48.33
2019-02-02T00:53:53.433Z,50.20
2019-02-02T00:56:35.225Z,48.63
2019-02-02T00:59:17.441Z,47.27
2019-02-02T01:02:00.089Z,51.30
2019-02-02T01:04:41.894Z,50.60
2019-02-02T01:07:24.589Z,49.23
2019-02-02T01:10:07.337Z,55.73
2019-02-02T01:12:50.197Z,44.08
2019-02-02T01:15:32.333Z,50.28
2019-02-02T01:18:14.302Z,46.63
2019-02-02T01:20:56.375Z,48.68
2019-02-02T01:23:39.122Z,49.30
2019-02-02T01:26:21.869Z,46.10
2019-02-02T01:29:04.062Z,46.95
2019-02-02T01:31:46.248Z,46.53
2019-02-02T01:34:28.346Z,46.20
2019-02-02T01:37:10.394Z,48.38
2019-02-02T01:39:52.761Z,49.90
2019-02-02T01:42:33.730Z,47.55
2019-02-02T01:45:23.384Z,47.13
2019-02-02T01:48:05.801Z,47.95
2019-02-02T01:50:48.348Z,45.95
2019-02-02T01:53:30.565Z,49.70
2019-02-02T01:56:12.869Z,50.17
2019-02-02T01:58:54.825Z,48.80
2019-02-02T02:01:36.532Z,48.40
2019-02-02T02:04:16.956Z,52.08
2019-02-02T02:07:06.459Z,48.30
2019-02-02T02:09:48.938Z,51.25
2019-02-02T02:12:31.793Z,47.55
2019-02-02T02:15:13.698Z,50.63
2019-02-02T02:17:55.725Z,46.15
2019-02-02T02:20:36.072Z,51.33
2019-02-02T02:26:33.165Z,46.77
2019-02-02T02:29:15.137Z,49.42
2019-02-02T02:31:57.733Z,50.15
2019-02-02T02:34:40.445Z,56.28
2019-02-02T02:37:22.450Z,46.13
2019-02-02T02:40:04.491Z,50.43
2019-02-02T02:42:47.285Z,45.15
2019-02-02T02:45:29.876Z,47.83
2019-02-02T02:48:12.127Z,51.42
2019-02-02T02:50:54.731Z,44.88
2019-02-02T02:53:35.113Z,45.90
2019-02-02T02:56:17.679Z,49.65
2019-02-02T02:59:00.206Z,48.58
2019-02-02T03:01:42.201Z,49.08
2019-02-02T03:04:25.254Z,47.70
2019-02-02T03:07:07.941Z,48.38
2019-02-02T03:09:49.689Z,49.85
2019-02-02T03:12:31.529Z,55.33
2019-02-02T03:15:13.418Z,50.90
2019-02-02T03:17:55.744Z,44.15
2019-02-02T03:20:38.165Z,51.92
2019-02-02T03:23:20.535Z,48.30
2019-02-02T03:26:03.731Z,48.00
2019-02-02T03:28:53.254Z,49.45
2019-02-02T03:31:35.691Z,50.88
2019-02-02T03:34:37.557Z,48.65
2019-02-02T03:37:19.565Z,43.45
2019-02-02T03:40:02.528Z,43.28
2019-02-02T03:42:44.266Z,50.15
2019-02-02T03:45:26.066Z,47.65
2019-02-02T03:48:06.474Z,51.70
2019-02-02T03:54:08.958Z,51.63
2019-02-02T03:56:46.055Z,45.08
2019-02-02T03:59:27.849Z,48.17
2019-02-02T04:02:10.253Z,50.80
2019-02-02T04:04:52.742Z,50.70
2019-02-02T04:07:34.687Z,52.93
2019-02-02T04:10:16.693Z,50.55
2019-02-02T04:12:58.758Z,48.58
2019-02-02T04:15:40.737Z,52.17
2019-02-02T04:18:23.693Z,54.63
2019-02-02T04:21:06.177Z,49.80
2019-02-02T04:23:47.993Z,51.28
2019-02-02T04:26:30.577Z,50.98
2019-02-02T04:29:17.775Z,42.65
2019-02-02T04:31:56.100Z,46.33
2019-02-02T04:34:45.434Z,46.75
2019-02-02T04:37:27.678Z,46.50
2019-02-02T04:40:09.893Z,43.00
2019-02-02T04:42:51.863Z,49.40
2019-02-02T04:45:33.821Z,48.42
2019-02-02T04:48:16.089Z,44.38
2019-02-02T04:50:58.481Z,49.23
2019-02-02T04:53:40.223Z,46.02
2019-02-02T04:56:23.112Z,47.62
2019-02-02T04:59:05.690Z,49.77
2019-02-02T05:01:48.565Z,48.83
2019-02-02T05:07:27.905Z,49.85
2019-02-02T05:10:10.485Z,47.95
2019-02-02T05:12:51.287Z,48.95
2019-02-02T05:15:40.922Z,52.35
2019-02-02T05:18:25.074Z,52.43
2019-02-02T05:21:07.349Z,49.00
2019-02-02T05:23:49.621Z,46.15
2019-02-02T05:26:32.065Z,47.30
2019-02-02T05:29:13.977Z,50.05
2019-02-02T05:31:57.053Z,48.65
2019-02-02T05:34:39.546Z,44.85
2019-02-02T05:37:22.116Z,50.65
2019-02-02T05:40:04.537Z,49.58
2019-02-02T05:42:46.809Z,49.58
2019-02-02T05:45:28.890Z,47.67
2019-02-02T05:48:10.633Z,42.62
2019-02-02T05:50:52.396Z,42.85
2019-02-02T05:53:34.725Z,49.18
2019-02-02T05:56:16.573Z,51.35
2019-02-02T05:58:59.353Z,46.92
2019-02-02T06:01:41.825Z,38.90
2019-02-02T06:04:24.254Z,48.08
2019-02-02T06:07:06.464Z,52.23
2019-02-02T06:09:48.858Z,49.53
2019-02-02T06:12:31.069Z,51.20
2019-02-02T06:15:13.025Z,48.38
2019-02-02T06:17:55.724Z,50.73
2019-02-02T06:20:38.278Z,51.37
2019-02-02T06:23:20.881Z,49.13
2019-02-02T06:26:02.560Z,47.10
2019-02-02T06:28:45.289Z,54.30
2019-02-02T06:31:27.628Z,50.58
2019-02-02T06:34:10.487Z,48.75
2019-02-02T06:36:53.011Z,46.53
2019-02-02T06:39:35.769Z,46.75
2019-02-02T06:42:17.883Z,48.55
2019-02-02T06:45:00.430Z,51.25
2019-02-02T06:47:42.457Z,48.00
2019-02-02T06:50:25.201Z,49.67
2019-02-02T06:53:07.397Z,49.77
2019-02-02T06:55:49.584Z,45.92
2019-02-02T06:58:32.037Z,44.13
2019-02-02T07:01:14.043Z,51.23
2019-02-02T07:03:56.337Z,39.90
2019-02-02T07:06:38.220Z,48.75
2019-02-02T07:09:19.757Z,44.90
2019-02-02T07:12:01.687Z,42.93
2019-02-02T07:14:43.529Z,49.88
2019-02-02T07:17:25.557Z,44.27
2019-02-02T07:20:07.986Z,45.52
2019-02-02T07:22:48.755Z,50.50
2019-02-02T07:25:38.424Z,48.28
2019-02-02T07:28:21.897Z,41.95
2019-02-02T07:31:02.513Z,46.73
2019-02-02T07:33:52.361Z,47.67
2019-02-02T07:36:34.965Z,45.55
2019-02-02T07:39:16.798Z,49.10
2019-02-02T07:41:59.268Z,49.00
2019-02-02T07:44:42.084Z,42.58
2019-02-02T07:47:25.375Z,47.53
2019-02-02T07:50:07.857Z,47.93
2019-02-02T07:52:50.015Z,52.65
2019-02-02T07:55:32.633Z,51.55
2019-02-02T07:58:14.593Z,47.43
2019-02-02T08:00:56.985Z,44.93
2019-02-02T08:03:38.790Z,46.25
2019-02-02T08:06:21.410Z,49.20
2019-02-02T08:09:01.789Z,45.45
2019-02-02T08:11:45.085Z,49.33
2019-02-02T08:14:27.778Z,51.63
2019-02-02T08:17:10.362Z,40.43
2019-02-02T08:19:52.606Z,47.33
2019-02-02T08:22:34.785Z,44.38
2019-02-02T08:25:17.245Z,49.67
2019-02-02T08:27:59.533Z,48.85
2019-02-02T08:30:52.110Z,44.75
2019-02-02T08:33:25.440Z,53.15
2019-02-02T08:36:07.845Z,46.83
2019-02-02T08:38:49.594Z,47.67
2019-02-02T08:41:32.683Z,50.98
2019-02-02T08:44:15.445Z,45.38
2019-02-02T08:46:58.230Z,50.90
2019-02-02T08:49:40.822Z,49.27
2019-02-02T08:52:23.313Z,43.63
2019-02-02T08:55:05.441Z,45.00
2019-02-02T08:57:47.715Z,44.20
2019-02-02T09:00:30.288Z,43.78
2019-02-02T09:03:13.226Z,43.60
2019-02-02T09:05:55.425Z,42.55
2019-02-02T09:08:38.062Z,44.15
2019-02-02T09:11:19.841Z,46.55
2019-02-02T09:14:02.557Z,45.28
2019-02-02T09:16:44.390Z,49.95
2019-02-02T09:19:27.201Z,40.90
2019-02-02T09:22:09.504Z,47.67
2019-02-02T09:24:52.320Z,44.80
2019-02-02T09:27:35.183Z,44.58
2019-02-02T09:30:16.986Z,50.17
2019-02-02T09:32:58.936Z,43.83
2019-02-02T09:35:39.338Z,46.13
2019-02-02T09:38:28.993Z,45.77
2019-02-02T09:41:11.005Z,41.77
2019-02-02T09:43:53.593Z,44.13
2019-02-02T09:46:36.382Z,42.95
2019-02-02T09:49:18.993Z,44.13
2019-02-02T09:52:00.098Z,45.05
2019-02-02T09:54:42.069Z,45.33
2019-02-02T09:57:27.610Z,41.90
2019-02-02T10:00:08.206Z,45.45
2019-02-02T10:02:49.977Z,46.33
2019-02-02T10:05:33.241Z,44.55
2019-02-02T10:08:15.381Z,43.77
2019-02-02T10:10:58.120Z,43.70
2019-02-02T10:13:40.833Z,42.60
2019-02-02T10:16:23.367Z,44.10
2019-02-02T10:19:04.158Z,41.80
2019-02-02T10:21:53.865Z,44.00
2019-02-02T10:24:37.719Z,43.30
2019-02-02T10:27:20.413Z,45.50
2019-02-02T10:30:02.358Z,45.03
2019-02-02T10:32:43.266Z,44.63
2019-02-02T10:35:32.864Z,47.78
2019-02-02T10:38:15.329Z,40.98
2019-02-02T10:40:57.244Z,44.38
2019-02-02T10:43:39.661Z,44.65
2019-02-02T10:46:21.505Z,42.97
2019-02-02T10:49:03.601Z,40.23
2019-02-02T10:51:46.394Z,44.77
2019-02-02T10:54:29.213Z,45.85
2019-02-02T10:57:11.886Z,43.50
2019-02-02T10:59:53.841Z,44.03
2019-02-02T11:02:36.105Z,41.87
2019-02-02T11:05:18.775Z,42.23
2019-02-02T11:08:00.947Z,40.23
2019-02-02T11:10:43.141Z,42.75
2019-02-02T11:13:25.750Z,40.28
2019-02-02T11:16:08.771Z,44.35
2019-02-02T11:18:51.412Z,47.85
2019-02-02T11:21:33.783Z,44.00
2019-02-02T11:24:18.872Z,44.20
2019-02-02T11:26:59.809Z,42.38
2019-02-02T11:29:42.764Z,45.17
2019-02-02T11:32:25.809Z,46.25
2019-02-02T11:35:07.848Z,47.23
2019-02-02T11:37:50.879Z,41.37
2019-02-02T11:40:33.138Z,46.63
2019-02-02T11:43:13.609Z,41.93
2019-02-02T11:49:04.037Z,44.13
2019-02-02T11:51:46.981Z,41.00
2019-02-02T11:54:29.333Z,46.77
2019-02-02T11:57:11.578Z,40.13
2019-02-02T11:59:53.942Z,44.80
2019-02-02T12:02:34.627Z,48.13
2019-02-02T12:05:24.369Z,45.40
2019-02-02T12:08:06.442Z,47.07
2019-02-02T12:10:48.475Z,46.50
2019-02-02T12:13:31.217Z,47.33
2019-02-02T12:16:14.030Z,46.67
2019-02-02T12:18:57.104Z,45.67
2019-02-02T12:21:39.354Z,44.53
2019-02-02T12:24:21.629Z,48.17
2019-02-02T12:27:04.090Z,48.43
2019-02-02T12:29:46.693Z,48.30
2019-02-02T12:32:29.185Z,48.60
2019-02-02T12:35:12.081Z,45.83
2019-02-02T12:37:52.590Z,48.75
2019-02-02T12:40:41.948Z,48.17
2019-02-02T12:43:24.513Z,49.63
2019-02-02T12:46:07.173Z,46.07
2019-02-02T12:48:48.984Z,47.17
2019-02-02T12:51:31.074Z,50.03
2019-02-02T12:54:13.317Z,44.45
2019-02-02T12:56:55.707Z,45.10
2019-02-02T12:59:38.041Z,44.20
2019-02-02T13:02:21.034Z,44.70
2019-02-02T13:05:02.247Z,47.50
2019-02-02T13:07:44.750Z,44.23
2019-02-02T13:10:26.485Z,42.97
2019-02-02T13:13:08.461Z,42.40
2019-02-02T13:15:51.298Z,43.90
2019-02-02T13:18:33.600Z,42.85
2019-02-02T13:21:15.469Z,43.40
2019-02-02T13:23:57.962Z,42.62
2019-02-02T13:29:37.361Z,40.12
2019-02-02T13:32:18.072Z,45.70
2019-02-02T13:37:56.558Z,44.38
2019-02-02T13:40:38.597Z,41.90
2019-02-02T13:43:21.339Z,40.50
2019-02-02T13:46:03.975Z,39.65
2019-02-02T13:48:46.674Z,44.63
2019-02-02T13:51:29.045Z,42.75
2019-02-02T13:54:09.661Z,41.40
2019-02-02T13:56:59.043Z,42.08
2019-02-02T13:59:40.936Z,39.07
2019-02-02T14:02:22.785Z,39.40
2019-02-02T14:05:05.253Z,41.77
2019-02-02T14:07:47.798Z,38.73
2019-02-02T14:10:30.010Z,35.25
2019-02-02T14:13:12.975Z,34.83
2019-02-02T14:15:54.875Z,31.10
2019-02-02T14:18:38.459Z,31.50
2019-02-02T14:21:20.355Z,28.17
2019-02-02T14:24:01.125Z,32.00
2019-02-02T14:26:50.784Z,33.33
2019-02-02T14:29:31.485Z,32.58
2019-02-02T14:35:28.258Z,29.25
2019-02-02T14:38:10.825Z,26.60
2019-02-02T14:40:53.432Z,26.57
2019-02-02T14:43:35.705Z,25.47
2019-02-02T14:46:16.170Z,23.75
2019-02-02T14:49:05.793Z,29.13
2019-02-02T14:51:47.621Z,26.95
2019-02-02T14:54:30.036Z,25.62
2019-02-02T14:57:12.363Z,27.90
2019-02-02T14:59:49.048Z,25.60
2019-02-02T15:02:38.645Z,25.95
2019-02-02T15:05:22.341Z,30.08
2019-02-02T15:08:04.099Z,27.30
2019-02-02T15:10:46.125Z,30.13
2019-02-02T15:13:28.141Z,27.32
2019-02-02T15:16:11.645Z,28.62
2019-02-02T15:18:53.646Z,28.47
2019-02-02T15:21:35.427Z,26.60
2019-02-02T15:24:17.780Z,28.32
2019-02-02T15:26:59.525Z,31.80
2019-02-02T15:29:42.515Z,25.97
2019-02-02T15:32:24.218Z,28.47
2019-02-02T15:35:07.119Z,28.67
2019-02-02T15:37:48.866Z,27.30
2019-02-02T15:40:31.878Z,26.95
2019-02-02T15:43:13.810Z,25.60
2019-02-02T15:45:56.013Z,28.23
2019-02-02T15:48:38.389Z,30.85
2019-02-02T15:51:20.271Z,26.80
2019-02-02T15:54:02.303Z,25.52
2019-02-02T15:56:44.781Z,24.75
2019-02-02T15:59:26.809Z,26.77
2019-02-02T16:02:10.145Z,27.87
2019-02-02T16:04:51.958Z,27.50
2019-02-02T16:07:33.969Z,27.52
2019-02-02T16:10:15.930Z,30.25
2019-02-02T16:12:57.881Z,35.70
2019-02-02T16:15:40.410Z,30.90
2019-02-02T16:18:22.162Z,31.37
2019-02-02T16:21:03.993Z,28.45
2019-02-02T16:23:45.990Z,29.37
2019-02-02T16:26:29.222Z,29.37
2019-02-02T16:29:11.776Z,30.60
2019-02-02T16:31:54.316Z,29.00
2019-02-02T16:34:36.706Z,27.80
2019-02-02T16:37:19.025Z,31.82
2019-02-02T16:40:01.120Z,30.82
2019-02-02T16:42:43.214Z,31.65
2019-02-02T16:45:25.378Z,46.02
2019-02-02T16:48:07.828Z,33.20
2019-02-02T16:50:50.289Z,34.92
2019-02-02T16:53:32.701Z,32.93
2019-02-02T16:56:15.191Z,31.75
2019-02-02T16:58:55.649Z,31.77
2019-02-02T17:01:45.248Z,30.52
2019-02-02T17:04:27.421Z,31.25
2019-02-02T17:07:09.365Z,33.10
2019-02-02T17:09:51.185Z,33.70
2019-02-02T17:12:33.010Z,32.33
2019-02-02T17:15:15.289Z,32.43
2019-02-02T17:17:58.099Z,31.87
2019-02-02T17:20:39.862Z,31.57
2019-02-02T17:23:22.045Z,32.63
2019-02-02T17:26:04.086Z,31.15
2019-02-02T17:28:46.433Z,34.67
2019-02-02T17:31:29.251Z,33.75
2019-02-02T17:34:11.638Z,35.70
2019-02-02T17:36:53.870Z,33.08
2019-02-02T17:39:36.037Z,33.88
2019-02-02T17:42:16.914Z,34.55
2019-02-02T17:51:30.487Z,32.10
2019-02-02T17:54:12.934Z,32.67
2019-02-02T17:56:55.605Z,34.40
2019-02-02T17:59:37.493Z,35.55
2019-02-02T18:02:19.453Z,33.85
2019-02-02T18:05:01.939Z,35.83
2019-02-02T18:07:44.052Z,37.15
2019-02-02T18:10:33.698Z,34.65
2019-02-02T18:13:15.479Z,31.40
2019-02-02T18:15:57.538Z,35.40
2019-02-02T18:18:39.286Z,34.15
2019-02-02T18:21:21.410Z,35.68
2019-02-02T18:24:03.860Z,33.13
2019-02-02T18:26:46.282Z,34.75
2019-02-02T18:29:29.460Z,35.13
2019-02-02T18:32:13.387Z,33.88
2019-02-02T18:34:56.206Z,35.90
2019-02-02T18:37:37.979Z,33.20
2019-02-02T18:40:19.998Z,35.88
2019-02-02T18:43:02.226Z,32.40
2019-02-02T18:45:44.689Z,32.83
2019-02-02T18:48:26.777Z,37.75
2019-02-02T18:51:07.221Z,35.88
2019-02-02T18:53:56.549Z,35.70
2019-02-02T18:56:39.181Z,33.20
2019-02-02T18:59:20.954Z,34.75
2019-02-02T19:02:03.110Z,34.05
2019-02-02T19:04:45.622Z,35.43
2019-02-02T19:07:15.801Z,34.45
2019-02-02T19:09:46.042Z,36.50
2019-02-02T19:12:16.494Z,35.25
2019-02-02T19:14:48.850Z,37.25
2019-02-02T19:17:19.454Z,33.70
2019-02-02T19:19:49.776Z,36.20
2019-02-02T19:22:20.491Z,32.08
2019-02-02T19:24:50.817Z,35.00
2019-02-02T19:27:21.285Z,34.95
2019-02-02T19:29:51.605Z,34.35
2019-02-02T19:32:21.737Z,34.43
2019-02-02T19:34:51.797Z,34.15
2019-02-02T19:37:22.417Z,35.10
2019-02-02T19:39:52.756Z,30.37
2019-02-02T19:42:23.076Z,35.48
2019-02-02T19:44:54.091Z,35.68
2019-02-02T19:47:24.342Z,33.28
2019-02-02T19:49:54.761Z,32.90
2019-02-02T19:52:26.659Z,36.73
2019-02-02T19:54:57.049Z,36.03
2019-02-02T19:57:33.269Z,31.40
2019-02-02T20:00:03.774Z,31.23
2019-02-02T20:02:40.551Z,31.87
2019-02-02T20:05:11.233Z,35.60
2019-02-02T20:07:42.219Z,35.43
2019-02-02T20:10:14.630Z,35.10
2019-02-02T20:12:45.332Z,32.53
2019-02-02T20:15:17.319Z,33.23
2019-02-02T20:17:48.427Z,33.92
2019-02-02T20:20:20.382Z,31.15
2019-02-02T20:22:50.709Z,34.80
2019-02-02T20:25:21.331Z,32.00
2019-02-02T20:27:52.846Z,32.53
2019-02-02T20:30:25.216Z,32.27
2019-02-02T20:32:55.898Z,31.20
2019-02-02T20:35:26.304Z,36.88
2019-02-02T20:37:56.906Z,34.85
2019-02-02T20:40:27.334Z,34.33
2019-02-02T20:42:57.815Z,32.70
2019-02-02T20:45:30.046Z,34.78
2019-02-02T20:48:00.374Z,34.45
2019-02-02T20:50:30.735Z,33.10
2019-02-02T20:53:03.129Z,34.03
2019-02-02T20:55:36.477Z,35.27
2019-02-02T20:58:06.813Z,33.02
2019-02-02T21:00:37.896Z,33.92
2019-02-02T21:03:08.400Z,33.78
2019-02-02T21:05:51.930Z,33.35
2019-02-02T21:08:14.666Z,33.23
2019-02-02T21:10:51.267Z,33.53
2019-02-02T21:13:21.855Z,32.05
2019-02-02T21:15:57.898Z,31.42
2019-02-02T21:18:28.053Z,36.90
2019-02-02T21:20:58.766Z,30.57
2019-02-02T21:23:29.106Z,33.00
2019-02-02T21:25:59.413Z,33.30
2019-02-02T21:28:29.745Z,31.75
2019-02-02T21:30:59.902Z,32.17
2019-02-02T21:33:36.889Z,30.65
2019-02-02T21:36:07.096Z,31.23
2019-02-02T21:38:43.839Z,31.77
2019-02-02T21:45:57.002Z,29.70
2019-02-02T21:48:49.893Z,31.00
2019-02-02T21:57:36.711Z,32.25
2019-02-02T22:45:26.841Z,22.55
2019-02-02T22:48:07.357Z,25.43
2019-02-02T22:50:56.986Z,26.68
2019-02-02T22:53:38.898Z,27.87
2019-02-02T22:56:20.693Z,25.02
2019-02-02T22:59:01.293Z,23.50
2019-02-02T23:01:53.485Z,22.87
2019-02-02T23:04:36.717Z,18.60
2019-02-02T23:07:27.210Z,22.02
2019-02-02T23:10:35.797Z,20.72
2019-02-02T23:13:17.770Z,20.12
2019-02-02T23:15:59.660Z,20.40
2019-02-02T23:18:41.657Z,19.85
2019-02-02T23:21:24.489Z,19.82
2019-02-02T23:24:07.682Z,17.32
2019-02-02T23:26:49.709Z,19.48
2019-02-02T23:29:31.964Z,16.57
2019-02-02T23:32:14.508Z,19.23
2019-02-02T23:34:57.118Z,15.43
2019-02-02T23:37:40.026Z,16.85
2019-02-02T23:40:22.585Z,16.42
2019-02-02T23:43:04.617Z,16.15
2019-02-02T23:45:46.693Z,15.38
2019-02-02T23:48:28.396Z,15.28
2019-02-02T23:51:11.089Z,15.08
2019-02-02T23:53:53.093Z,15.35
2019-02-02T23:56:35.181Z,16.30
2019-02-02T23:59:17.894Z,15.60
